Time;durP1;ratioP1;P1;durP2;ratioP2;P2;SDS_P1;SDS_P2;PMS_P1;PMS_P2;Temp;Humidity;BMP_temperature;BMP_pressure;BME280_temperature;BME280_humidity;BME280_pressure;Samples;Min_cycle;Max_cycle;Signal;HPM_P1;HPM_P2
2021/03/27 00:00:36;;;;;;;51.80;33.30;;;10.70;84.00;;;;;;5120798;28;20228;-82
2021/03/27 00:03:33;;;;;;;41.28;30.83;;;10.70;84.00;;;;;;5114125;28;20245;-82
2021/03/27 00:06:08;;;;;;;44.78;30.38;;;10.70;83.80;;;;;;5111349;28;20221;-81
2021/03/27 00:08:50;;;;;;;45.28;31.27;;;10.60;84.70;;;;;;5113899;28;20502;-82
2021/03/27 00:11:46;;;;;;;49.28;33.55;;;10.50;84.90;;;;;;5121409;28;20200;-80
2021/03/27 00:14:22;;;;;;;42.55;30.85;;;10.50;85.30;;;;;;5100082;28;20202;-81
2021/03/27 00:16:58;;;;;;;57.97;31.98;;;10.40;84.90;;;;;;5112959;28;20246;-81
2021/03/27 00:19:51;;;;;;;42.67;27.50;;;10.40;84.60;;;;;;5110620;28;20213;-80
2021/03/27 00:22:20;;;;;;;41.97;29.02;;;10.40;84.20;;;;;;5110100;28;20246;-82
2021/03/27 00:25:21;;;;;;;44.83;29.55;;;10.50;84.00;;;;;;5104129;28;20224;-82
2021/03/27 00:28:29;;;;;;;53.20;32.60;;;10.60;83.30;;;;;;5103354;28;20200;-81
2021/03/27 00:31:16;;;;;;;56.45;31.08;;;10.60;84.60;;;;;;5093146;28;20200;-81
2021/03/27 00:33:55;;;;;;;52.20;32.85;;;10.50;84.40;;;;;;5101199;28;20193;-79
2021/03/27 00:36:26;;;;;;;52.47;34.95;;;10.50;84.90;;;;;;5113340;28;20272;-82
2021/03/27 00:39:03;;;;;;;52.30;34.72;;;10.30;85.90;;;;;;5117776;28;20276;-80
2021/03/27 00:41:38;;;;;;;48.80;33.50;;;10.30;86.00;;;;;;5100109;28;20205;-81
2021/03/27 00:44:09;;;;;;;48.05;34.70;;;10.20;86.80;;;;;;5118222;28;20204;-80
2021/03/27 00:46:37;;;;;;;56.78;34.50;;;10.10;87.20;;;;;;5121959;28;20192;-81
2021/03/27 00:49:08;;;;;;;48.97;34.80;;;10.10;87.50;;;;;;5114504;28;20224;-82
2021/03/27 00:51:41;;;;;;;44.63;33.03;;;10.00;87.60;;;;;;5113944;28;20213;-80
2021/03/27 00:54:20;;;;;;;49.97;36.40;;;10.00;87.50;;;;;;5114908;27;20196;-81
2021/03/27 00:57:10;;;;;;;40.63;30.38;;;9.90;88.10;;;;;;5127924;27;20205;-80
2021/03/27 01:00:09;;;;;;;50.47;33.20;;;9.80;87.70;;;;;;5103334;28;20392;-81
2021/03/27 01:02:41;;;;;;;40.08;29.73;;;9.70;88.00;;;;;;5091379;28;20204;-80
2021/03/27 01:05:10;;;;;;;47.83;32.67;;;9.80;87.50;;;;;;5116016;28;20224;-81
2021/03/27 01:07:38;;;;;;;39.35;29.40;;;9.70;87.10;;;;;;5122945;28;20200;-80
2021/03/27 01:10:08;;;;;;;43.88;27.40;;;9.80;86.30;;;;;;5125377;28;20238;-80
2021/03/27 01:12:39;;;;;;;43.03;25.80;;;9.80;85.90;;;;;;5120415;27;20195;-88
2021/03/27 01:15:22;;;;;;;41.15;28.08;;;9.80;85.90;;;;;;5109465;28;20203;-90
2021/03/27 01:18:10;;;;;;;42.47;27.15;;;9.80;85.90;;;;;;5130540;28;20277;-91
2021/03/27 01:20:41;;;;;;;40.03;26.52;;;9.80;85.90;;;;;;5121138;28;20200;-90
2021/03/27 01:23:10;;;;;;;39.55;27.95;;;9.80;85.70;;;;;;5131097;27;20203;-91
2021/03/27 01:25:39;;;;;;;39.33;26.63;;;9.80;85.60;;;;;;5128089;27;20221;-92
2021/03/27 01:28:29;;;;;;;45.28;27.88;;;9.70;86.20;;;;;;5140483;27;20199;-93
2021/03/27 01:31:24;;;;;;;40.53;27.38;;;9.60;86.50;;;;;;5083207;28;20252;-91
2021/03/27 01:34:21;;;;;;;42.70;28.67;;;9.60;86.90;;;;;;5096739;28;20188;-90
2021/03/27 01:36:56;;;;;;;48.47;28.75;;;9.50;87.40;;;;;;5100384;28;20225;-91
2021/03/27 01:40:07;;;;;;;42.22;28.17;;;9.40;88.00;;;;;;5103889;28;20426;-88
2021/03/27 01:42:59;;;;;;;45.83;29.48;;;9.40;88.70;;;;;;5126935;27;20199;-88
2021/03/27 01:45:47;;;;;;;50.35;30.83;;;9.30;89.10;;;;;;5118736;27;20208;-89
2021/03/27 01:48:53;;;;;;;45.97;28.88;;;9.20;89.60;;;;;;5109198;28;20218;-91
2021/03/27 01:51:54;;;;;;;46.83;29.90;;;9.20;90.10;;;;;;5112415;28;20275;-89
2021/03/27 01:54:40;;;;;;;49.67;30.80;;;9.00;90.30;;;;;;5107059;28;20206;-89
2021/03/27 01:57:30;;;;;;;47.67;31.42;;;9.00;90.50;;;;;;5130863;27;20221;-90
2021/03/27 02:00:14;;;;;;;50.92;29.25;;;8.90;90.70;;;;;;5119574;28;20234;-91
2021/03/27 02:03:28;;;;;;;58.08;33.15;;;8.80;90.90;;;;;;5148164;27;20215;-92
2021/03/27 02:06:34;;;;;;;54.15;35.05;;;8.80;90.90;;;;;;5091947;28;20219;-91
2021/03/27 02:09:36;;;;;;;54.78;35.08;;;8.70;90.90;;;;;;5113326;27;20217;-90
2021/03/27 02:12:27;;;;;;;48.65;33.50;;;8.70;90.80;;;;;;5088832;27;20204;-90
2021/03/27 02:15:17;;;;;;;48.78;33.65;;;8.70;91.00;;;;;;5102500;28;20183;-91
2021/03/27 02:17:55;;;;;;;52.08;30.83;;;8.60;91.20;;;;;;5116455;28;20221;-92
2021/03/27 02:20:47;;;;;;;53.08;31.30;;;8.60;91.30;;;;;;5125066;27;20208;-90
2021/03/27 02:23:21;;;;;;;49.17;33.33;;;8.50;91.40;;;;;;5098658;28;20210;-90
2021/03/27 02:26:18;;;;;;;58.83;34.28;;;8.50;91.60;;;;;;5132492;28;20218;-89
2021/03/27 02:29:03;;;;;;;50.83;34.95;;;8.40;91.90;;;;;;5100034;28;20264;-90
2021/03/27 02:31:37;;;;;;;56.47;35.67;;;8.20;92.40;;;;;;5133103;27;20190;-92
2021/03/27 02:34:33;;;;;;;51.67;37.28;;;8.20;92.70;;;;;;5124839;28;20204;-92
2021/03/27 02:37:20;;;;;;;48.80;34.47;;;8.20;92.70;;;;;;5095117;28;20270;-92
2021/03/27 02:39:58;;;;;;;56.60;35.50;;;8.00;92.90;;;;;;5096514;28;20195;-93
2021/03/27 02:42:35;;;;;;;58.55;37.85;;;8.00;92.90;;;;;;5101746;28;20302;-92
2021/03/27 02:45:30;;;;;;;62.75;36.92;;;8.10;92.70;;;;;;5115015;28;20311;-92
2021/03/27 02:48:12;;;;;;;60.80;38.28;;;8.10;92.70;;;;;;5103510;28;20205;-92
2021/03/27 02:50:52;;;;;;;65.38;40.70;;;8.10;92.70;;;;;;5100315;28;20192;-91
2021/03/27 02:53:18;;;;;;;64.10;41.53;;;8.10;92.70;;;;;;5100764;28;20325;-91
2021/03/27 02:56:08;;;;;;;70.55;42.92;;;8.00;93.00;;;;;;5129144;28;20197;-94
2021/03/27 02:59:01;;;;;;;56.25;36.40;;;8.00;93.00;;;;;;5151661;27;20209;-92
2021/03/27 03:01:34;;;;;;;59.05;36.47;;;7.90;93.10;;;;;;5095834;28;20214;-93
2021/03/27 03:04:18;;;;;;;62.63;39.67;;;7.90;93.00;;;;;;5079237;22;20444;-93
2021/03/27 03:06:55;;;;;;;54.00;36.50;;;7.80;93.20;;;;;;5041057;28;20228;-92
2021/03/27 03:09:49;;;;;;;51.78;34.25;;;7.80;93.20;;;;;;5044436;28;20207;-90
2021/03/27 03:12:52;;;;;;;57.70;37.70;;;7.80;93.20;;;;;;5041121;28;20551;-91
2021/03/27 03:15:25;;;;;;;47.55;33.80;;;7.70;93.10;;;;;;5052241;28;20204;-90
2021/03/27 03:17:56;;;;;;;54.25;35.67;;;7.60;93.00;;;;;;5042460;28;20242;-93
2021/03/27 03:20:49;;;;;;;53.53;31.95;;;7.60;93.20;;;;;;5042057;28;20212;-91
2021/03/27 03:24:01;;;;;;;60.33;34.55;;;7.60;93.10;;;;;;5032113;28;20196;-91
2021/03/27 03:27:07;;;;;;;52.35;33.38;;;7.60;93.30;;;;;;5037556;28;20233;-90
2021/03/27 03:29:55;;;;;;;57.85;33.15;;;7.60;93.00;;;;;;5084518;28;20219;-92
2021/03/27 03:32:43;;;;;;;52.05;34.25;;;7.60;93.10;;;;;;5060130;28;20241;-92
2021/03/27 03:35:48;;;;;;;50.67;32.22;;;7.60;93.00;;;;;;5050235;28;20231;-88
2021/03/27 03:38:39;;;;;;;50.13;31.95;;;7.60;92.80;;;;;;5066636;28;20195;-90
2021/03/27 03:41:15;;;;;;;51.30;32.33;;;7.70;92.80;;;;;;5056305;28;20491;-92
2021/03/27 03:43:56;;;;;;;52.40;31.58;;;7.50;93.00;;;;;;5041947;28;20407;-91
2021/03/27 03:46:47;;;;;;;49.38;31.50;;;7.50;93.20;;;;;;5041882;28;20510;-91
2021/03/27 03:49:32;;;;;;;56.00;32.22;;;7.50;93.00;;;;;;5043569;28;20273;-90
2021/03/27 03:52:40;;;;;;;47.95;28.17;;;7.50;92.80;;;;;;5033057;28;20300;-90
2021/03/27 03:55:12;;;;;;;47.60;29.38;;;7.60;92.80;;;;;;5065111;28;20239;-90
2021/03/27 03:58:06;;;;;;;57.72;33.05;;;6.70;92.70;;;;;;5048896;28;20290;-92
2021/03/27 04:00:46;;;;;;;49.63;31.08;;;7.50;93.00;;;;;;5045496;28;20203;-91
2021/03/27 04:03:25;;;;;;;54.38;33.10;;;7.40;93.30;;;;;;5041767;28;20306;-89
2021/03/27 04:06:05;;;;;;;51.33;32.83;;;7.30;93.50;;;;;;5043895;28;20270;-91
2021/03/27 04:09:02;;;;;;;49.35;33.22;;;7.30;93.70;;;;;;5050096;28;20238;-91
2021/03/27 04:11:44;;;;;;;45.72;30.08;;;7.20;93.90;;;;;;5049026;28;20303;-91
2021/03/27 04:14:42;;;;;;;47.72;30.55;;;7.20;94.00;;;;;;5064499;28;20238;-90
2021/03/27 04:17:20;;;;;;;47.08;31.25;;;6.90;94.10;;;;;;5066195;28;20247;-92
2021/03/27 04:20:07;;;;;;;52.28;30.20;;;7.00;94.30;;;;;;5046335;28;20196;-90
2021/03/27 04:22:40;;;;;;;60.53;33.80;;;7.10;94.30;;;;;;5044992;28;20196;-89
2021/03/27 04:25:26;;;;;;;45.92;29.35;;;6.40;94.10;;;;;;5045279;28;20227;-92
2021/03/27 04:28:22;;;;;;;61.28;30.70;;;7.10;94.30;;;;;;5060421;28;20255;-90
2021/03/27 04:31:06;;;;;;;48.83;30.35;;;7.10;94.20;;;;;;5038684;28;20204;-90
2021/03/27 04:34:07;;;;;;;46.20;32.40;;;7.00;94.00;;;;;;5036158;28;20201;-93
2021/03/27 04:36:45;;;;;;;58.38;31.25;;;7.00;94.40;;;;;;5042565;28;20247;-91
2021/03/27 04:39:42;;;;;;;48.78;30.40;;;6.90;94.30;;;;;;5043694;28;20275;-96
2021/03/27 04:42:34;;;;;;;50.58;30.27;;;7.00;94.30;;;;;;5044357;28;20193;-91
2021/03/27 04:45:23;;;;;;;52.50;32.13;;;7.10;94.30;;;;;;5067066;28;20217;-91
2021/03/27 04:48:23;;;;;;;47.47;29.60;;;7.00;94.30;;;;;;5063491;28;20207;-91
2021/03/27 04:51:22;;;;;;;48.08;29.42;;;7.00;94.40;;;;;;5052103;28;20271;-88
2021/03/27 04:54:01;;;;;;;49.85;31.23;;;7.00;94.30;;;;;;5057722;28;20276;-90
2021/03/27 04:56:46;;;;;;;50.55;31.27;;;7.00;94.30;;;;;;5045409;28;20242;-92
2021/03/27 04:59:25;;;;;;;47.25;29.30;;;7.10;94.00;;;;;;5045639;28;20212;-92
2021/03/27 05:02:12;;;;;;;52.80;29.30;;;7.10;93.90;;;;;;5051857;28;20208;-95
2021/03/27 05:05:01;;;;;;;46.35;32.25;;;7.20;93.90;;;;;;5056278;28;20227;-93
2021/03/27 05:08:05;;;;;;;43.38;29.58;;;7.20;93.80;;;;;;5050890;28;20209;-91
2021/03/27 05:10:40;;;;;;;50.60;30.20;;;7.40;93.30;;;;;;5065614;28;20216;-93
2021/03/27 05:13:43;;;;;;;46.45;28.95;;;7.60;92.80;;;;;;5050192;28;20298;-91
2021/03/27 05:16:19;;;;;;;49.50;27.70;;;7.80;92.50;;;;;;4977090;28;20212;-91
2021/03/27 05:18:51;;;;;;;50.53;30.35;;;8.10;92.00;;;;;;5059160;28;20200;-91
2021/03/27 05:21:37;;;;;;;45.05;27.92;;;7.70;91.30;;;;;;5032288;28;20285;-91
2021/03/27 05:24:24;;;;;;;45.10;28.45;;;8.60;90.90;;;;;;5045855;28;20236;-91
2021/03/27 05:27:10;;;;;;;39.38;25.65;;;8.80;90.00;;;;;;5040346;28;20246;-91
2021/03/27 05:30:17;;;;;;;48.90;31.20;;;9.00;89.30;;;;;;5042082;28;20268;-89
2021/03/27 05:33:18;;;;;;;42.85;26.13;;;9.20;88.90;;;;;;5035417;28;20363;-90
2021/03/27 05:36:16;;;;;;;43.75;27.23;;;9.40;88.50;;;;;;5038769;28;20566;-90
2021/03/27 05:38:55;;;;;;;47.40;26.45;;;10.40;88.20;;;;;;5043072;28;20578;-91
2021/03/27 05:41:43;;;;;;;40.35;27.05;;;9.40;87.40;;;;;;5056377;28;20236;-91
2021/03/27 05:44:39;;;;;;;44.70;29.58;;;9.40;87.50;;;;;;5045896;28;20236;-91
2021/03/27 05:47:47;;;;;;;42.80;28.60;;;9.30;87.70;;;;;;5033528;28;20217;-92
2021/03/27 05:50:48;;;;;;;47.20;27.92;;;9.20;87.60;;;;;;5055514;28;20197;-92
2021/03/27 05:53:41;;;;;;;42.47;28.20;;;9.20;87.80;;;;;;5043710;28;20511;-91
2021/03/27 05:56:33;;;;;;;36.13;25.63;;;10.20;88.50;;;;;;5041788;28;20407;-91
2021/03/27 05:59:28;;;;;;;42.63;28.05;;;9.20;87.80;;;;;;5047359;28;20277;-92
2021/03/27 06:02:23;;;;;;;41.67;25.10;;;10.00;88.00;;;;;;5058854;28;20497;-91
2021/03/27 06:05:16;;;;;;;42.83;27.90;;;9.30;87.80;;;;;;5044200;28;20267;-92
2021/03/27 06:08:07;;;;;;;43.58;25.00;;;9.30;87.60;;;;;;5042744;28;20553;-91
2021/03/27 06:10:46;;;;;;;41.90;25.33;;;9.60;87.50;;;;;;5054999;28;20295;-91
2021/03/27 06:13:44;;;;;;;46.25;26.30;;;9.80;85.80;;;;;;5050787;28;20214;-92
2021/03/27 06:16:29;;;;;;;36.42;24.88;;;10.40;83.70;;;;;;5047534;28;20204;-92
2021/03/27 06:19:25;;;;;;;40.33;25.23;;;11.40;81.00;;;;;;5053580;28;20229;-94
2021/03/27 06:22:11;;;;;;;38.97;25.08;;;12.00;76.60;;;;;;5049617;28;20242;-92
2021/03/27 06:25:36;;;;;;;46.08;27.45;;;12.70;74.00;;;;;;5050066;28;20395;-92
2021/03/27 06:28:40;;;;;;;38.28;26.33;;;13.20;71.10;;;;;;4996506;28;20268;-92
2021/03/27 06:31:30;;;;;;;38.13;26.45;;;14.30;66.60;;;;;;5025902;28;20196;-93
2021/03/27 06:34:26;;;;;;;45.65;27.40;;;15.10;62.90;;;;;;5026894;28;20228;-93
2021/03/27 06:37:29;;;;;;;34.53;25.07;;;15.40;60.00;;;;;;5012645;28;20449;-95
2021/03/27 06:40:43;;;;;;;34.73;25.80;;;16.40;58.10;;;;;;5011044;28;20483;-91
2021/03/27 06:43:18;;;;;;;36.43;26.20;;;17.80;53.70;;;;;;5029912;28;20526;-92
2021/03/27 06:46:17;;;;;;;40.33;27.50;;;17.90;52.10;;;;;;5007893;28;20485;-92
2021/03/27 06:49:21;;;;;;;35.27;27.57;;;16.80;53.50;;;;;;5001367;28;20456;-92
2021/03/27 06:52:09;;;;;;;41.13;29.37;;;16.00;57.10;;;;;;5017699;28;20476;-91
2021/03/27 06:54:55;;;;;;;44.67;29.30;;;15.10;57.60;;;;;;5013478;28;20423;-93
2021/03/27 06:57:24;;;;;;;35.13;26.10;;;15.40;59.20;;;;;;5024360;28;20500;-91
2021/03/27 07:00:24;;;;;;;39.30;27.10;;;16.00;57.60;;;;;;5059191;28;20416;-90
2021/03/27 07:03:19;;;;;;;36.50;26.73;;;16.90;55.60;;;;;;5052367;28;20432;-94
2021/03/27 07:06:25;;;;;;;36.57;26.33;;;17.30;54.70;;;;;;5047764;28;20455;-91
2021/03/27 07:09:25;;;;;;;35.83;26.57;;;18.00;50.60;;;;;;5046270;28;20420;-92
2021/03/27 07:12:23;;;;;;;38.47;28.40;;;19.50;49.40;;;;;;5048006;28;20457;-93
2021/03/27 07:15:33;;;;;;;39.50;28.43;;;20.80;46.60;;;;;;5047574;28;20480;-92
2021/03/27 07:18:15;;;;;;;32.00;25.70;;;21.00;45.30;;;;;;5056114;28;20445;-92
2021/03/27 07:20:46;;;;;;;40.63;27.60;;;21.20;44.50;;;;;;5040317;28;20436;-90
2021/03/27 07:23:28;;;;;;;39.70;27.10;;;22.00;43.60;;;;;;5052581;28;20714;-91
2021/03/27 07:26:25;;;;;;;34.30;28.20;;;22.40;42.70;;;;;;5051589;28;20548;-92
2021/03/27 07:29:46;;;;;;;38.37;28.00;;;22.50;42.40;;;;;;5052955;28;20768;-91
2021/03/27 07:32:52;;;;;;;37.33;27.57;;;21.60;43.90;;;;;;5063612;28;20448;-90
2021/03/27 07:35:35;;;;;;;35.70;26.50;;;20.50;45.40;;;;;;5003772;28;20484;-91
2021/03/27 07:38:05;;;;;;;31.97;26.33;;;18.90;49.10;;;;;;5051889;28;20432;-90
2021/03/27 07:40:51;;;;;;;33.93;26.67;;;17.20;53.00;;;;;;5046229;28;20416;-90
2021/03/27 07:43:53;;;;;;;32.37;24.80;;;16.30;55.90;;;;;;5044228;28;20439;-89
2021/03/27 07:46:26;;;;;;;37.27;25.53;;;16.00;58.20;;;;;;5048315;28;20439;-92
2021/03/27 07:48:58;;;;;;;38.60;26.00;;;15.90;59.40;;;;;;5051325;28;20529;-93
2021/03/27 07:51:56;;;;;;;32.30;24.27;;;15.50;60.50;;;;;;5052440;28;20422;-90
2021/03/27 07:55:03;;;;;;;31.55;24.83;;;15.10;62.70;;;;;;5052344;28;20955;-89
2021/03/27 07:57:39;;;;;;;37.38;25.55;;;15.20;64.40;;;;;;5066009;28;20201;-92
2021/03/27 08:00:17;;;;;;;38.25;26.38;;;15.00;65.50;;;;;;5057708;28;20252;-90
2021/03/27 08:03:22;;;;;;;36.45;24.42;;;14.80;66.60;;;;;;5062405;28;20202;-90
2021/03/27 08:06:05;;;;;;;41.00;24.23;;;15.00;67.80;;;;;;5062330;28;20221;-89
2021/03/27 08:09:09;;;;;;;38.63;25.90;;;16.30;66.70;;;;;;5057773;28;20446;-90
2021/03/27 08:12:14;;;;;;;35.57;24.30;;;16.80;63.00;;;;;;5062589;28;20469;-91
2021/03/27 08:14:57;;;;;;;33.53;24.00;;;17.40;59.70;;;;;;5068350;28;20480;-92
2021/03/27 08:18:03;;;;;;;30.70;23.37;;;18.00;58.20;;;;;;5054885;28;20448;-91
2021/03/27 08:20:57;;;;;;;36.37;24.47;;;18.60;55.30;;;;;;5042022;28;20502;-91
2021/03/27 08:23:54;;;;;;;33.43;23.80;;;18.80;54.20;;;;;;5051448;28;20412;-89
2021/03/27 08:26:39;;;;;;;26.07;20.70;;;20.40;50.10;;;;;;5047001;28;20459;-90
2021/03/27 08:29:43;;;;;;;34.97;22.07;;;21.40;47.40;;;;;;5046354;28;20465;-89
2021/03/27 08:32:29;;;;;;;32.90;22.30;;;20.90;47.60;;;;;;5055351;28;20469;-92
2021/03/27 08:35:27;;;;;;;34.20;22.07;;;20.30;48.60;;;;;;5081907;28;20422;-92
2021/03/27 08:38:32;;;;;;;31.20;24.07;;;20.00;48.90;;;;;;5068559;28;20426;-92
2021/03/27 08:41:50;;;;;;;;;;;;;;;;;;;;;
2021/03/27 08:45:05;;;;;;;28.97;21.53;;;19.30;51.40;;;;;;5054863;28;20458;-93
2021/03/27 08:47:53;;;;;;;31.73;21.77;;;19.00;52.50;;;;;;5055199;23;20452;-65
2021/03/27 08:50:33;;;;;;;25.43;20.00;;;18.90;53.50;;;;;;5039937;28;20416;-64
2021/03/27 08:53:15;;;;;;;25.97;19.57;;;18.60;53.80;;;;;;5049620;28;20776;-66
2021/03/27 08:55:51;;;;;;;27.27;16.97;;;18.70;55.40;;;;;;5030053;28;20468;-65
2021/03/27 08:58:45;;;;;;;24.10;17.23;;;18.70;55.60;;;;;;5027208;28;20758;-64
2021/03/27 09:01:45;;;;;;;30.83;16.10;;;18.50;53.00;;;;;;5033093;28;20435;-64
2021/03/27 09:04:37;;;;;;;23.83;14.73;;;18.60;52.00;;;;;;5041410;28;20433;-63
2021/03/27 09:07:41;;;;;;;26.43;16.80;;;19.40;50.50;;;;;;5038002;28;20411;-63
2021/03/27 09:10:44;;;;;;;18.93;15.20;;;19.40;49.50;;;;;;5025674;28;20448;-64
2021/03/27 09:13:35;;;;;;;21.80;15.77;;;19.30;48.80;;;;;;5026691;28;20454;-64
2021/03/27 09:16:46;;;;;;;19.97;13.20;;;19.50;48.50;;;;;;5028876;28;20477;-64
2021/03/27 09:19:30;;;;;;;26.23;15.97;;;19.20;47.30;;;;;;4955920;28;20453;-64
2021/03/27 09:22:21;;;;;;;18.40;12.70;;;20.80;43.70;;;;;;5032840;28;20769;-65
2021/03/27 09:25:02;;;;;;;22.80;16.13;;;22.10;41.90;;;;;;5036103;28;20459;-65
2021/03/27 09:27:47;;;;;;;19.20;14.20;;;22.00;43.90;;;;;;5044190;28;20456;-64
2021/03/27 09:30:35;;;;;;;23.23;14.23;;;21.40;44.60;;;;;;5029453;28;20418;-64
2021/03/27 09:33:16;;;;;;;20.10;14.40;;;21.10;43.80;;;;;;5035459;28;20445;-63
2021/03/27 09:35:48;;;;;;;19.30;12.60;;;20.90;43.90;;;;;;5040021;28;20581;-64
2021/03/27 09:38:42;;;;;;;15.63;13.30;;;20.60;44.60;;;;;;5036387;28;20454;-64
2021/03/27 09:41:46;;;;;;;24.47;12.87;;;19.90;44.80;;;;;;5039870;28;20409;-64
2021/03/27 09:44:27;;;;;;;23.63;14.23;;;19.70;45.40;;;;;;5022841;28;20452;-65
2021/03/27 09:47:22;;;;;;;19.97;14.37;;;20.10;46.00;;;;;;5027141;28;20460;-63
2021/03/27 09:50:23;;;;;;;17.97;13.20;;;20.20;44.60;;;;;;5027215;28;20488;-64
2021/03/27 09:53:16;;;;;;;24.70;14.47;;;20.20;45.30;;;;;;4996837;28;20640;-64
2021/03/27 09:55:50;;;;;;;19.67;13.60;;;20.20;45.00;;;;;;5033842;28;20574;-64
2021/03/27 09:58:30;;;;;;;21.00;14.53;;;19.90;45.80;;;;;;5029964;28;20424;-64
2021/03/27 10:01:10;;;;;;;18.63;15.10;;;19.70;46.80;;;;;;5028552;28;20478;-63
2021/03/27 10:03:48;;;;;;;19.53;14.63;;;19.80;46.10;;;;;;5028393;28;20422;-64
2021/03/27 10:06:53;;;;;;;26.10;14.57;;;20.00;47.00;;;;;;5029157;28;20450;-64
2021/03/27 10:09:30;;;;;;;23.47;14.77;;;19.90;46.80;;;;;;5031279;28;20453;-64
2021/03/27 10:12:35;;;;;;;29.27;13.30;;;19.50;47.00;;;;;;5026103;28;20427;-64
2021/03/27 10:15:18;;;;;;;20.77;16.20;;;19.50;47.10;;;;;;5032983;28;20418;-64
2021/03/27 10:17:53;;;;;;;24.90;15.80;;;19.50;47.80;;;;;;5038254;28;20488;-65
2021/03/27 10:20:41;;;;;;;17.67;13.47;;;19.20;48.40;;;;;;5037766;28;20565;-64
2021/03/27 10:23:29;;;;;;;23.20;15.83;;;19.00;48.20;;;;;;5036304;28;20417;-64
2021/03/27 10:26:08;;;;;;;20.97;15.23;;;18.80;50.20;;;;;;5037363;28;20420;-64
2021/03/27 10:32:16;;;;;;;31.40;15.73;;;18.30;51.10;;;;;;5029008;28;20658;-64
2021/03/27 10:34:48;;;;;;;23.50;15.87;;;18.10;51.70;;;;;;5039653;28;20445;-64
2021/03/27 10:37:27;;;;;;;20.60;15.03;;;17.80;53.20;;;;;;5029221;28;20564;-64
2021/03/27 10:40:02;;;;;;;19.63;14.17;;;17.50;54.90;;;;;;5031316;28;20618;-66
2021/03/27 10:43:14;;;;;;;19.43;13.53;;;17.30;55.10;;;;;;5041004;28;20756;-64
2021/03/27 10:46:07;;;;;;;17.13;14.23;;;16.90;55.50;;;;;;5029093;28;20460;-64
2021/03/27 10:49:00;;;;;;;18.13;13.30;;;16.40;56.90;;;;;;5036118;28;20451;-65
2021/03/27 10:52:04;;;;;;;23.57;12.90;;;16.00;58.70;;;;;;5035037;28;20419;-64
2021/03/27 10:54:49;;;;;;;16.80;12.30;;;15.70;60.60;;;;;;5029286;28;20822;-66
2021/03/27 10:57:45;;;;;;;18.70;12.17;;;15.60;61.30;;;;;;5029815;28;20473;-65
2021/03/27 11:00:31;;;;;;;17.30;12.27;;;15.40;62.70;;;;;;5031852;28;20809;-65
2021/03/27 11:03:09;;;;;;;20.10;10.97;;;15.30;64.10;;;;;;5030209;28;20530;-63
2021/03/27 11:05:57;;;;;;;9.93;8.50;;;15.20;66.30;;;;;;5029004;28;20448;-64
2021/03/27 11:09:01;;;;;;;18.15;5.70;;;15.10;67.70;;;;;;5028266;28;20461;-63
2021/03/27 11:11:34;;;;;;;9.80;6.20;;;14.80;69.50;;;;;;5033584;28;20210;-64
2021/03/27 11:14:29;;;;;;;6.53;4.97;;;14.70;71.40;;;;;;5040275;28;20271;-64
2021/03/27 11:17:15;;;;;;;6.05;5.53;;;14.70;72.90;;;;;;5031050;28;20408;-63
2021/03/27 11:20:01;;;;;;;9.45;6.88;;;14.40;80.80;;;;;;5028220;28;20217;-64
2021/03/27 11:22:36;;;;;;;11.35;7.22;;;14.10;88.30;;;;;;5039209;28;20216;-64
2021/03/27 11:25:21;;;;;;;6.65;5.82;;;13.60;91.80;;;;;;5042839;28;20208;-63
2021/03/27 11:28:12;;;;;;;6.80;6.07;;;13.30;91.00;;;;;;5030911;28;20548;-63
2021/03/27 11:30:57;;;;;;;8.63;6.53;;;13.20;91.70;;;;;;5045470;28;20223;-63
2021/03/27 11:33:33;;;;;;;7.50;6.20;;;13.50;92.60;;;;;;5029121;28;20208;-64
2021/03/27 11:36:05;;;;;;;8.15;5.60;;;14.00;90.80;;;;;;5044477;28;20237;-63
2021/03/27 11:38:52;;;;;;;8.75;6.15;;;14.50;89.70;;;;;;5044020;28;20495;-64
2021/03/27 11:41:32;;;;;;;6.90;5.82;;;15.10;86.90;;;;;;5039629;28;20209;-65
2021/03/27 11:44:40;;;;;;;7.40;6.70;;;15.70;81.70;;;;;;5040645;28;20237;-63
2021/03/27 11:47:49;;;;;;;7.83;6.63;;;16.10;82.40;;;;;;5029536;28;20672;-63
2021/03/27 11:50:15;;;;;;;8.30;7.60;;;16.30;77.00;;;;;;5013778;28;20501;-63
2021/03/27 11:53:01;;;;;;;8.70;6.73;;;16.50;77.50;;;;;;5039696;28;20419;-64
2021/03/27 11:55:33;;;;;;;7.73;6.30;;;16.50;76.00;;;;;;5032890;28;20653;-65
2021/03/27 11:58:21;;;;;;;11.40;8.07;;;16.50;75.00;;;;;;5036581;28;20456;-63
2021/03/27 12:01:03;;;;;;;6.97;6.27;;;16.40;74.40;;;;;;5036535;28;20458;-65
2021/03/27 12:03:47;;;;;;;7.47;6.70;;;15.90;74.00;;;;;;5028391;28;20406;-64
2021/03/27 12:06:48;;;;;;;7.87;7.07;;;15.50;72.40;;;;;;5035358;28;20463;-64
2021/03/27 12:09:17;;;;;;;8.80;6.47;;;15.30;74.10;;;;;;5029091;28;20423;-65
2021/03/27 12:11:53;;;;;;;8.53;6.90;;;15.30;75.10;;;;;;5026066;28;20728;-64
2021/03/27 12:14:44;;;;;;;9.87;7.87;;;15.70;71.70;;;;;;5029416;28;20505;-64
2021/03/27 12:17:30;;;;;;;10.83;6.83;;;16.10;70.00;;;;;;5031362;28;20484;-65
2021/03/27 12:20:02;;;;;;;10.73;7.10;;;16.40;68.80;;;;;;5030163;28;20441;-65
2021/03/27 12:22:36;;;;;;;6.53;5.93;;;16.20;69.40;;;;;;5025432;28;20443;-64
2021/03/27 12:25:42;;;;;;;7.90;7.20;;;15.90;69.90;;;;;;5024983;28;20650;-64
2021/03/27 12:28:16;;;;;;;9.63;8.07;;;15.30;71.50;;;;;;5025780;28;20463;-64
2021/03/27 12:31:22;;;;;;;8.23;7.37;;;14.70;73.80;;;;;;5025794;28;20510;-65
2021/03/27 12:34:00;;;;;;;9.30;8.50;;;14.40;75.80;;;;;;5006075;28;20451;-63
2021/03/27 12:36:40;;;;;;;5.68;4.95;;;14.00;79.40;;;;;;5039414;28;20309;-63
2021/03/27 12:39:16;;;;;;;5.45;4.85;;;13.30;83.50;;;;;;5034168;28;20208;-63
2021/03/27 12:42:11;;;;;;;11.60;5.00;;;11.60;91.40;;;;;;5032386;28;20210;-63
2021/03/27 12:44:52;;;;;;;11.32;5.10;;;10.70;94.60;;;;;;5029580;28;20608;-64
2021/03/27 12:47:45;;;;;;;3.50;3.22;;;10.30;95.80;;;;;;5031677;28;20251;-65
2021/03/27 12:50:37;;;;;;;2.85;2.55;;;10.10;94.10;;;;;;5020527;28;20214;-63
2021/03/27 12:53:33;;;;;;;6.65;3.10;;;9.70;94.10;;;;;;5018022;28;20234;-63
2021/03/27 12:56:12;;;;;;;2.10;2.00;;;9.40;95.20;;;;;;5033207;28;20379;-63
2021/03/27 12:59:26;;;;;;;3.45;2.40;;;9.20;96.40;;;;;;5031169;28;20215;-63
2021/03/27 13:02:33;;;;;;;3.35;2.40;;;9.20;95.30;;;;;;4998536;28;20612;-64
2021/03/27 13:05:34;;;;;;;3.00;2.80;;;9.20;95.10;;;;;;5020956;28;20213;-64
2021/03/27 13:08:35;;;;;;;4.95;2.70;;;9.20;95.50;;;;;;5031161;28;20203;-63
2021/03/27 13:11:37;;;;;;;3.53;3.25;;;9.30;96.00;;;;;;5032994;28;20206;-63
2021/03/27 13:14:38;;;;;;;4.22;3.83;;;9.20;96.60;;;;;;5032581;28;20218;-63
2021/03/27 13:17:21;;;;;;;5.30;3.88;;;9.10;96.70;;;;;;5033500;28;20539;-63
2021/03/27 13:19:54;;;;;;;5.40;4.90;;;9.20;96.70;;;;;;5034754;28;20203;-63
2021/03/27 13:22:30;;;;;;;4.00;3.70;;;9.40;96.80;;;;;;5037063;28;20687;-63
2021/03/27 13:25:21;;;;;;;3.95;3.65;;;9.50;96.50;;;;;;5036177;28;20219;-63
2021/03/27 13:28:12;;;;;;;4.32;3.58;;;9.50;97.00;;;;;;5038092;28;20285;-63
2021/03/27 13:30:45;;;;;;;3.85;3.55;;;9.50;97.20;;;;;;5035119;28;21030;-63
2021/03/27 13:33:35;;;;;;;3.50;3.20;;;9.40;97.40;;;;;;5032591;28;20293;-63
2021/03/27 13:36:15;;;;;;;2.92;2.72;;;9.30;97.20;;;;;;5032784;28;20234;-64
2021/03/27 13:39:09;;;;;;;3.65;3.35;;;9.30;97.20;;;;;;5033241;28;20286;-65
2021/03/27 13:41:35;;;;;;;4.85;4.43;;;9.20;97.90;;;;;;5035586;28;20306;-64
2021/03/27 13:44:26;;;;;;;4.15;3.75;;;9.20;98.10;;;;;;5032397;28;20211;-65
2021/03/27 13:47:04;;;;;;;3.85;3.53;;;9.30;98.50;;;;;;5034350;28;20221;-64
2021/03/27 13:50:01;;;;;;;5.70;4.75;;;9.40;98.80;;;;;;5034114;28;20525;-64
2021/03/27 13:52:53;;;;;;;5.75;4.47;;;9.50;98.20;;;;;;5034029;28;20277;-63
2021/03/27 13:55:39;;;;;;;6.10;5.40;;;9.60;97.50;;;;;;5019585;28;20249;-65
2021/03/27 13:58:26;;;;;;;4.70;4.30;;;9.70;97.70;;;;;;5034108;28;20211;-64
2021/03/27 14:01:17;;;;;;;5.28;4.82;;;9.70;96.90;;;;;;5017039;28;20230;-64
2021/03/27 14:04:20;;;;;;;5.47;4.97;;;9.80;97.60;;;;;;5036109;28;20215;-63
2021/03/27 14:06:59;;;;;;;6.40;4.13;;;10.00;97.00;;;;;;5032766;28;20563;-65
2021/03/27 14:09:49;;;;;;;4.13;3.72;;;10.10;96.00;;;;;;5044860;28;20217;-65
2021/03/27 14:12:31;;;;;;;3.70;3.40;;;10.30;95.60;;;;;;5038449;28;20564;-64
2021/03/27 14:15:28;;;;;;;3.65;3.25;;;10.50;95.80;;;;;;5038663;28;20221;-64
2021/03/27 14:18:14;;;;;;;3.60;3.30;;;11.80;94.80;;;;;;5029063;28;20276;-64
2021/03/27 14:21:04;;;;;;;3.17;2.90;;;11.50;93.10;;;;;;5036974;28;20207;-65
2021/03/27 14:24:21;;;;;;;4.18;3.30;;;12.00;91.90;;;;;;5038058;28;20254;-65
2021/03/27 14:27:25;;;;;;;4.22;3.65;;;12.20;91.40;;;;;;5029191;28;20243;-66
2021/03/27 14:29:52;;;;;;;3.67;2.95;;;12.20;90.60;;;;;;5036217;28;20490;-65